LCLKLGSM

Guest
Details From LCLK - Larnaca
To LGSM - SAMOS
Flight Number -
Tags generated
Created
Modified
Stats Distance 375 nm / 695 km
Max Altitude 34,000 ft / 10,363 m
Waypoints 8
Social Downloads 1
Likes 0
Share VATSIM

Download

Looking for another format? Having issues loading an existing format? Contact us
Advertisement - Login to hide

Notes

Basic altitude profile: - Ascent Rate: 2500ft/min - Ascent Speed: 250kts - Cruise Altitude: 35000ft - Cruise Speed: 420kts - Descent Rate: 1500ft/min - Descent Speed: 250kts Options: - Use NATs: yes - Use PACOTS: yes - Use low airways: yes - Use high airways: yes

Route

LCLK DAROS M601 DASNI UM601 EXELA UN127 DAL LGSM

ID Type Via Altitude Latitude Longitude Leg Dist Tot Dist Heading (true) Name
O LCLK APT - 0 ft / 0 m 34.87512˚ 33.62483˚ - 0 nm - Larnaca
DAROS FIX - 8,800 ft / 2,682 m 35.01167˚ 33.14833˚ 24 nm 24 nm 289° / 289° -
DASNI FIX M601 (AWY-LO) 24,500 ft / 7,468 m 35.61667˚ 30.85000˚ 118 nm 143 nm 289° / 287° -
EVENO FIX UM601 (AWY-HI) 34,000 ft / 10,363 m 35.83333˚ 30.00000˚ 43 nm 186 nm 288° / 287° -
EXELA FIX UM601 (AWY-HI) 34,000 ft / 10,363 m 35.95556˚ 29.54778˚ 23 nm 209 nm 289° / 288° -
BENEM FIX UN127 (AWY-HI) 30,600 ft / 9,327 m 36.18333˚ 29.31667˚ 17 nm 227 nm 321° / 321° -
DAL NDB UN127 (AWY-HI) 28,500 ft / 8,687 m 36.68955˚ 28.78193˚ 39 nm 267 nm 320° / 319° DALAMAN NDB
O LGSM APT - 0 ft / 0 m 37.68901˚ 26.91112˚ 107 nm 375 nm 304° / 303° SAMOS

Altitude Profile

Advertisement - Login to hide

Weather


0- 5 10 15 20 25 30 35+ Temperature / ° C

Clouds and Precipitation
Forecast for 2017-12-11 18:00 UTC. Updated 29 minutes ago

Ground ~20,000 ft ~40,000 ft Winds

LCLK

Details ICAO LCLK (LCA)
Name Larnaca
Region Cyprus
Timezone Asia/Nicosia (UTC+2.0)
Stats Elevation 8 ft / 2 m (AMSL)
Location 34.875115° 33.624832°
Runways 1
Magnetic Variation 4.990° E

METAR

LCLK 111730Z 34005KT CAVOK 14/12 Q1025 NOSIG

Decode

TAF

TAF LCLK 111130Z 1112/1212 06012KT 9999 FEW030 BECMG 1115/1118 36009KT BECMG 1205/1208 06011KT

Decode

Departure Runways

ID Width Length Bearing (true) Bearing (mag) Surface Threshold Offset Overrun Length
04 148 ft / 45 m 9,771 ft / 2,978 m 45.15° 40.16° Asphalt 0 ft / 0 m 210 ft / 64 m
22 148 ft / 45 m 9,771 ft / 2,978 m 225.17° 220.18° Asphalt 575 ft / 175 m 0 ft / 0 m

LGSM

Details ICAO LGSM (SMI)
Name SAMOS
Region Greece
Timezone Europe/Athens (UTC+2.0)
Stats Elevation 19 ft / 6 m (AMSL)
Location 37.689012° 26.911123°
Runways 1
Magnetic Variation 4.800° E

METAR

LGSM 111720Z 00000KT 9999 FEW018 BKN025 14/10 Q1024

Decode

TAF

Not found

Destination Runways

ID Width Length Bearing (true) Bearing (mag) Surface Threshold Offset Overrun Length
09 148 ft / 45 m 6,690 ft / 2,039 m 94.02° 89.22° Asphalt 230 ft / 70 m 0 ft / 0 m
27 148 ft / 45 m 6,690 ft / 2,039 m 274.03° 269.23° Asphalt 0 ft / 0 m 0 ft / 0 m

Popular Alternatives